createdAt,value
2022-12-08T00:01:31.664Z,63.64
2022-12-08T00:04:00.754Z,62.12
2022-12-08T00:06:49.417Z,61.59
2022-12-08T00:09:23.474Z,62.15
2022-12-08T00:11:52.500Z,63.63
2022-12-08T00:14:20.681Z,64.42
2022-12-08T00:16:47.890Z,65.40
2022-12-08T00:19:15.545Z,64.54
2022-12-08T00:21:45.871Z,63.30
2022-12-08T00:24:13.366Z,62.86
2022-12-08T00:26:40.697Z,62.79
2022-12-08T00:29:11.913Z,62.61
2022-12-08T00:31:43.123Z,62.61
2022-12-08T00:34:13.021Z,63.11
2022-12-08T00:36:40.688Z,63.66
2022-12-08T00:39:08.376Z,63.65
2022-12-08T00:41:54.018Z,63.64
2022-12-08T00:44:21.655Z,64.57
2022-12-08T00:46:49.218Z,64.51
2022-12-08T00:49:19.810Z,63.00
2022-12-08T00:51:47.242Z,62.88
2022-12-08T00:54:15.100Z,62.84
2022-12-08T00:56:42.140Z,62.82
2022-12-08T00:59:10.130Z,61.72
2022-12-08T01:01:37.449Z,62.89
2022-12-08T01:04:06.890Z,63.71
2022-12-08T01:06:36.287Z,64.31
2022-12-08T01:09:06.752Z,64.82
2022-12-08T01:11:34.102Z,64.19
2022-12-08T01:14:01.654Z,64.77
2022-12-08T01:16:32.920Z,63.07
2022-12-08T01:19:01.172Z,62.16
2022-12-08T01:21:29.103Z,61.38
2022-12-08T01:23:58.201Z,61.86
2022-12-08T01:26:25.261Z,60.86
2022-12-08T01:28:52.804Z,61.21
2022-12-08T01:31:21.637Z,59.86
2022-12-08T01:33:50.277Z,60.89
2022-12-08T01:36:29.222Z,62.19
2022-12-08T01:38:59.695Z,62.86
2022-12-08T01:41:30.906Z,64.85
2022-12-08T01:44:21.421Z,64.75
2022-12-08T01:46:51.603Z,65.75
2022-12-08T01:49:25.880Z,65.57
2022-12-08T01:52:03.051Z,65.16
2022-12-08T01:54:34.908Z,64.33
2022-12-08T01:57:11.757Z,63.47
2022-12-08T01:59:45.037Z,62.59
2022-12-08T02:02:12.717Z,62.37
2022-12-08T02:04:40.153Z,62.37
2022-12-08T02:07:12.244Z,63.56
2022-12-08T02:09:41.102Z,61.83
2022-12-08T02:12:09.897Z,61.29
2022-12-08T02:14:40.540Z,61.53
2022-12-08T02:17:16.453Z,59.76
2022-12-08T02:20:37.328Z,60.39
2022-12-08T02:23:42.287Z,61.55
2022-12-08T02:26:47.273Z,62.52
2022-12-08T02:29:23.378Z,62.55
2022-12-08T02:32:02.548Z,63.04
2022-12-08T02:34:42.901Z,62.37
2022-12-08T02:37:17.700Z,61.74
2022-12-08T02:40:00.126Z,61.98
2022-12-08T02:42:46.464Z,61.17
2022-12-08T02:45:21.925Z,60.89
2022-12-08T02:47:50.264Z,59.20
2022-12-08T02:50:17.332Z,58.64
2022-12-08T02:52:48.821Z,58.41
2022-12-08T02:55:21.462Z,56.82
2022-12-08T02:58:04.206Z,56.60
2022-12-08T03:00:49.435Z,57.47
2022-12-08T03:03:33.100Z,57.71
2022-12-08T03:06:00.043Z,58.52
2022-12-08T03:08:33.172Z,57.75
2022-12-08T03:11:06.489Z,58.17
2022-12-08T03:13:46.777Z,58.45
2022-12-08T03:16:18.805Z,58.00
2022-12-08T03:18:52.964Z,57.91
2022-12-08T03:21:22.384Z,58.50
2022-12-08T03:23:55.565Z,58.85
2022-12-08T03:26:32.888Z,59.59
2022-12-08T03:29:00.926Z,60.14
2022-12-08T03:31:33.655Z,58.34
2022-12-08T03:34:05.012Z,58.31
2022-12-08T03:36:32.421Z,57.86
2022-12-08T03:39:00.267Z,56.82
2022-12-08T03:41:27.481Z,55.32
2022-12-08T03:43:59.607Z,55.29
2022-12-08T03:48:56.298Z,57.50
2022-12-08T03:51:23.709Z,58.18
2022-12-08T03:53:51.326Z,57.81
2022-12-08T03:56:33.685Z,57.12
2022-12-08T03:59:02.112Z,56.32
2022-12-08T04:01:29.275Z,56.84
2022-12-08T04:03:56.979Z,57.91
2022-12-08T04:06:24.643Z,57.22
2022-12-08T04:08:52.616Z,56.72
2022-12-08T04:11:20.534Z,56.40
2022-12-08T04:13:48.133Z,58.46
2022-12-08T04:16:22.100Z,58.86
2022-12-08T04:18:50.167Z,58.09
2022-12-08T04:21:17.671Z,58.89
2022-12-08T04:23:45.341Z,58.81
2022-12-08T04:26:13.406Z,57.45
2022-12-08T04:28:40.889Z,57.02
2022-12-08T04:31:08.410Z,57.08
2022-12-08T04:33:35.839Z,56.36
2022-12-08T04:36:05.219Z,55.90
2022-12-08T04:38:33.505Z,55.53
2022-12-08T04:41:01.081Z,54.67
2022-12-08T04:43:29.040Z,55.36
2022-12-08T04:45:56.382Z,55.55
2022-12-08T04:48:24.317Z,55.14
2022-12-08T04:50:51.845Z,55.07
2022-12-08T04:53:20.451Z,54.80
2022-12-08T04:55:48.939Z,54.47
2022-12-08T04:58:19.284Z,54.62
2022-12-08T05:00:47.673Z,54.58
2022-12-08T05:03:16.081Z,54.75
2022-12-08T05:05:43.833Z,54.86
2022-12-08T05:08:11.903Z,54.13
2022-12-08T05:10:39.119Z,54.07
2022-12-08T05:13:07.247Z,53.67
2022-12-08T05:15:37.117Z,53.01
2022-12-08T05:18:07.673Z,52.98
2022-12-08T05:20:36.109Z,53.00
2022-12-08T05:23:03.833Z,53.43
2022-12-08T05:25:30.892Z,54.07
2022-12-08T05:28:32.337Z,53.85
2022-12-08T05:30:45.394Z,53.81
2022-12-08T05:33:12.911Z,53.56
2022-12-08T05:35:40.220Z,54.36
2022-12-08T05:38:07.946Z,54.06
2022-12-08T05:40:35.118Z,56.11
2022-12-08T05:43:02.603Z,55.24
2022-12-08T05:45:29.736Z,55.21
2022-12-08T05:47:57.267Z,55.43
2022-12-08T05:50:24.725Z,55.25
2022-12-08T05:52:52.213Z,55.60
2022-12-08T05:55:22.576Z,55.84
2022-12-08T05:57:50.372Z,56.13
2022-12-08T06:00:18.370Z,56.05
2022-12-08T06:02:46.074Z,56.01
2022-12-08T06:05:13.398Z,58.15
2022-12-08T06:07:43.998Z,57.98
2022-12-08T06:10:12.863Z,57.49
2022-12-08T06:12:40.881Z,56.78
2022-12-08T06:15:08.344Z,56.47
2022-12-08T06:17:35.959Z,56.75
2022-12-08T06:20:06.214Z,57.41
2022-12-08T06:22:34.209Z,58.74
2022-12-08T06:25:03.233Z,57.51
2022-12-08T06:27:34.505Z,56.07
2022-12-08T06:30:01.795Z,56.49
2022-12-08T06:32:29.679Z,55.96
2022-12-08T06:34:56.749Z,57.15
2022-12-08T06:37:24.416Z,56.06
2022-12-08T06:39:52.127Z,56.54
2022-12-08T06:42:48.764Z,55.81
2022-12-08T06:45:17.896Z,55.17
2022-12-08T06:47:48.300Z,54.92
2022-12-08T06:50:15.764Z,54.09
2022-12-08T06:52:54.344Z,53.83
2022-12-08T06:55:57.450Z,53.45
2022-12-08T06:58:15.510Z,52.66
2022-12-08T07:00:42.593Z,52.62
2022-12-08T07:03:11.863Z,52.51
2022-12-08T07:05:39.745Z,52.19
2022-12-08T07:08:09.170Z,51.82
2022-12-08T07:10:36.346Z,51.43
2022-12-08T07:13:04.147Z,52.12
2022-12-08T07:15:31.452Z,52.62
2022-12-08T07:18:00.395Z,52.37
2022-12-08T07:20:28.394Z,52.39
2022-12-08T07:22:56.352Z,51.71
2022-12-08T07:25:23.932Z,51.17
2022-12-08T07:27:52.896Z,50.69
2022-12-08T07:30:20.279Z,49.97
2022-12-08T07:32:47.818Z,50.21
2022-12-08T07:35:17.205Z,51.18
2022-12-08T07:37:44.752Z,50.53
2022-12-08T07:40:12.775Z,52.63
2022-12-08T07:42:40.616Z,54.49
2022-12-08T07:45:08.296Z,55.74
2022-12-08T07:47:35.789Z,55.27
2022-12-08T07:50:03.247Z,54.47
2022-12-08T07:52:30.961Z,55.42
2022-12-08T07:54:58.128Z,51.98
2022-12-08T07:57:25.718Z,50.63
2022-12-08T07:59:56.372Z,49.40
2022-12-08T08:02:25.712Z,48.60
2022-12-08T08:04:54.057Z,48.36
2022-12-08T08:07:21.633Z,48.48
2022-12-08T08:09:48.693Z,48.96
2022-12-08T08:12:34.689Z,47.98
2022-12-08T08:15:07.724Z,48.14
2022-12-08T08:17:39.414Z,47.58
2022-12-08T08:20:08.222Z,48.69
2022-12-08T08:22:37.229Z,50.77
2022-12-08T08:25:04.874Z,52.22
2022-12-08T08:27:33.556Z,51.64
2022-12-08T08:30:01.031Z,52.08
2022-12-08T08:32:28.511Z,52.20
2022-12-08T08:34:55.566Z,53.14
2022-12-08T08:37:23.635Z,53.98
2022-12-08T08:39:50.820Z,54.26
2022-12-08T08:42:18.259Z,52.69
2022-12-08T08:44:45.521Z,52.35
2022-12-08T08:47:15.775Z,52.60
2022-12-08T08:49:46.658Z,53.73
2022-12-08T08:52:14.252Z,51.95
2022-12-08T08:54:41.260Z,51.47
2022-12-08T08:57:09.681Z,51.43
2022-12-08T08:59:39.276Z,52.39
2022-12-08T09:02:07.249Z,51.69
2022-12-08T09:04:34.400Z,51.51
2022-12-08T09:07:02.376Z,51.02
2022-12-08T09:09:29.653Z,50.83
2022-12-08T09:11:58.086Z,49.69
2022-12-08T09:14:25.639Z,51.92
2022-12-08T09:16:53.099Z,49.75
2022-12-08T09:19:20.197Z,50.00
2022-12-08T09:21:47.912Z,50.24
2022-12-08T09:24:18.179Z,49.95
2022-12-08T09:26:45.959Z,50.38
2022-12-08T09:29:14.992Z,50.96
2022-12-08T09:31:42.632Z,49.99
2022-12-08T09:34:13.040Z,50.36
2022-12-08T09:36:40.887Z,50.24
2022-12-08T09:39:08.200Z,49.80
2022-12-08T09:41:44.846Z,49.81
2022-12-08T09:44:53.086Z,48.67
2022-12-08T09:47:39.281Z,48.94
2022-12-08T09:50:22.826Z,49.63
2022-12-08T09:52:56.926Z,50.40
2022-12-08T09:55:39.280Z,52.20
2022-12-08T09:58:17.852Z,51.00
2022-12-08T10:00:45.712Z,50.88
2022-12-08T10:03:16.849Z,52.45
2022-12-08T10:05:52.288Z,52.52
2022-12-08T10:08:26.288Z,51.65
2022-12-08T10:11:04.950Z,51.92
2022-12-08T10:14:15.926Z,50.71
2022-12-08T10:16:49.402Z,52.79
2022-12-08T10:19:25.472Z,52.23
2022-12-08T10:21:54.013Z,52.02
2022-12-08T19:50:29.043Z,53.34
2022-12-08T19:52:57.358Z,53.55
2022-12-08T19:55:25.828Z,53.31
2022-12-08T19:57:53.994Z,52.89
2022-12-08T20:00:21.870Z,52.45
2022-12-08T20:02:50.320Z,51.96
2022-12-08T20:05:17.911Z,52.16
2022-12-08T20:07:45.640Z,52.15
2022-12-08T20:10:21.508Z,54.71
2022-12-08T20:12:50.868Z,55.50
2022-12-08T20:15:20.518Z,53.50
2022-12-08T20:17:47.995Z,52.82
2022-12-08T20:20:15.721Z,51.43
2022-12-08T20:22:45.434Z,51.35
2022-12-08T20:25:13.532Z,51.02
2022-12-08T20:27:41.699Z,51.04
2022-12-08T20:30:15.044Z,51.47
2022-12-08T20:32:45.827Z,51.39
2022-12-08T20:35:13.433Z,51.22
2022-12-08T20:37:41.262Z,51.35
2022-12-08T20:40:09.571Z,50.97
2022-12-08T20:42:37.375Z,51.24
2022-12-08T20:45:10.031Z,51.38
2022-12-08T20:47:37.947Z,50.63
2022-12-08T20:50:06.994Z,51.15
2022-12-08T20:52:34.808Z,51.00
2022-12-08T20:55:02.339Z,50.77
2022-12-08T20:57:30.066Z,51.13
2022-12-08T20:59:57.568Z,51.20
2022-12-08T21:02:25.274Z,49.79
2022-12-08T21:04:52.828Z,49.68
2022-12-08T21:07:20.493Z,49.52
2022-12-08T21:09:53.918Z,50.09
2022-12-08T21:12:21.952Z,50.56
2022-12-08T21:14:53.104Z,50.08
2022-12-08T21:25:08.005Z,50.34
2022-12-08T21:25:42.993Z,50.05
2022-12-08T21:27:42.336Z,49.03
2022-12-08T21:30:13.584Z,48.47
2022-12-08T21:32:41.177Z,48.40
2022-12-08T21:35:09.613Z,48.86
2022-12-08T21:37:38.061Z,47.68
2022-12-08T21:40:07.125Z,48.50
2022-12-08T21:42:44.358Z,47.95
2022-12-08T21:45:17.199Z,47.88
2022-12-08T21:47:45.950Z,47.71
2022-12-08T21:50:14.808Z,51.58
2022-12-08T21:52:45.370Z,58.80
2022-12-08T21:55:14.354Z,56.66
2022-12-08T21:57:42.056Z,56.47
2022-12-08T22:00:15.362Z,53.98
2022-12-08T22:02:43.700Z,56.47
2022-12-08T22:05:11.581Z,56.84
2022-12-08T22:07:40.785Z,53.82
2022-12-08T22:10:13.124Z,55.35
2022-12-08T22:12:40.803Z,54.41
2022-12-08T22:15:11.459Z,53.85
2022-12-08T22:17:40.837Z,53.35
2022-12-08T22:20:12.947Z,52.70
2022-12-08T22:22:40.881Z,52.47
2022-12-08T22:25:12.407Z,54.60
2022-12-08T22:27:41.016Z,58.00
2022-12-08T22:30:10.138Z,54.04
2022-12-08T22:32:37.765Z,53.40
2022-12-08T22:35:05.777Z,58.36
2022-12-08T22:37:33.207Z,58.22
2022-12-08T22:40:00.763Z,55.86
2022-12-08T22:42:28.016Z,55.60
2022-12-08T22:44:55.466Z,53.71
2022-12-08T22:47:22.520Z,52.07
2022-12-08T22:49:50.391Z,53.22
2022-12-08T22:52:17.668Z,52.12
2022-12-08T22:54:45.125Z,51.74
2022-12-08T22:57:14.898Z,51.44
2022-12-08T22:59:42.659Z,50.77
2022-12-08T23:02:10.951Z,50.71
2022-12-08T23:04:38.900Z,50.00
2022-12-08T23:07:06.436Z,50.44
2022-12-08T23:09:34.138Z,50.14
2022-12-08T23:12:01.241Z,50.00
2022-12-08T23:14:28.685Z,50.45
2022-12-08T23:16:55.879Z,50.10
2022-12-08T23:19:26.314Z,49.66
2022-12-08T23:21:53.489Z,49.32
2022-12-08T23:24:21.654Z,49.23
2022-12-08T23:26:48.796Z,49.51
2022-12-08T23:29:16.662Z,49.72
2022-12-08T23:31:44.103Z,50.00
2022-12-08T23:34:12.122Z,50.11
2022-12-08T23:36:39.403Z,49.31
2022-12-08T23:39:07.340Z,49.66
2022-12-08T23:41:34.758Z,49.48
2022-12-08T23:44:02.466Z,49.28
2022-12-08T23:46:31.241Z,49.13
2022-12-08T23:48:59.326Z,49.29
2022-12-08T23:51:26.500Z,49.69
2022-12-08T23:53:54.046Z,49.80
2022-12-08T23:56:24.350Z,49.70
2022-12-08T23:58:54.374Z,50.12
